Terminal Aerodrome Forecast
Issued by NWS Charleston, WV

Current Version | Previous Version | Graphics & Text | Print | Product List | Glossary On
Versions: 1 2 3 4 5 6 7 8 9 10 11 12 13 14 15 16 17 18 19 20 21 22 23 24 25 26 27 28
000
FTUS41 KRLX 271551 AAC
TAFCRW
TAF AMD
KCRW 271551Z 2716/2812 00000KT 6SM SHRA VCTS BKN035CB
      TEMPO 2716/2717 2SM TSRA BR OVC030CB
     FM271700 00000KT P6SM VCTS BKN040CB
     FM272300 00000KT P6SM BKN045=

USA.gov is the U.S. government's official web portal to all federal, state and local government web resources and services.